Time;durP1;ratioP1;P1;durP2;ratioP2;P2;SDS_P1;SDS_P2;PMS_P1;PMS_P2;Temp;Humidity;BMP_temperature;BMP_pressure;BME280_temperature;BME280_humidity;BME280_pressure;Samples;Min_cycle;Max_cycle;Signal;HPM_P1;HPM_P2
2023/03/16 00:01:47;;;;;;;;;;;;;;;;;;5072798;28;20276;-66
2023/03/16 00:04:14;;;;;;;;;;;;;;;;;;5071220;28;19978;-65
2023/03/16 00:06:41;;;;;;;;;;;;;;;;;;5074099;28;20021;-64
2023/03/16 00:09:08;;;;;;;;;;;;;;;;;;5070379;28;20009;-64
2023/03/16 00:11:35;;;;;;;;;;;;;;;;;;5073924;28;19925;-65
2023/03/16 00:14:03;;;;;;;;;;;;;;;;;;5071320;28;19928;-65
2023/03/16 00:16:30;;;;;;;;;;;;;;;;;;5072130;28;19924;-64
2023/03/16 00:18:58;;;;;;;;;;;;;;;;;;5072745;28;19931;-65
2023/03/16 00:21:25;;;;;;;;;;;;;;;;;;5073486;28;19924;-64
2023/03/16 00:23:52;;;;;;;;;;;;;;;;;;5070736;28;19932;-64
2023/03/16 00:26:19;;;;;;;;;;;;;;;;;;5073584;28;20383;-64
2023/03/16 00:28:46;;;;;;;;;;;;;;;;;;5070680;28;19924;-64
2023/03/16 00:31:13;;;;;;;;;;;;;;;;;;5073313;28;19928;-65
2023/03/16 00:33:41;;;;;;;;;;;;;;;;;;5070039;28;19931;-64
2023/03/16 00:36:10;;;;;;;;;;;;;;;;;;5072600;28;19968;-65
2023/03/16 00:38:37;;;;;;;;;;;;;;;;;;5068368;28;19925;-64
2023/03/16 00:41:04;;;;;;;;;;;;;;;;;;5072951;28;19924;-65
2023/03/16 00:43:30;;;;;;;;;;;;;;;;;;5071090;28;19931;-65
2023/03/16 00:45:57;;;;;;;;;;;;;;;;;;5073274;28;19999;-65
2023/03/16 00:48:24;;;;;;;;;;;;;;;;;;5071197;28;20007;-65
2023/03/16 00:50:53;;;;;;;;;;;;;;;;;;5073224;28;19975;-64
2023/03/16 00:53:21;;;;;;;;;;;;;;;;;;5066486;28;19940;-64
2023/03/16 00:55:48;;;;;;;;;;;;;;;;;;5065283;28;19928;-65
2023/03/16 00:58:14;;;;;;;;;;;;;;;;;;5068779;28;19928;-64
2023/03/16 01:00:42;;;;;;;;;;;;;;;;;;5068936;28;20015;-65
2023/03/16 01:03:09;;;;;;;;;;;;;;;;;;5058628;28;19994;-65
2023/03/16 01:05:36;;;;;;;;;;;;;;;;;;5071472;28;20024;-65
2023/03/16 01:08:03;;;;;;;;;;;;;;;;;;5071513;28;19925;-65
2023/03/16 01:10:30;;;;;;;;;;;;;;;;;;5070998;28;20042;-64
2023/03/16 01:12:57;;;;;;;;;;;;;;;;;;5072257;28;20016;-64
2023/03/16 01:15:24;;;;;;;;;;;;;;;;;;5072214;28;19924;-64
2023/03/16 01:17:51;;;;;;;;;;;;;;;;;;5070076;28;20376;-65
2023/03/16 01:20:18;;;;;;;;;;;;;;;;;;5072328;28;19925;-65
2023/03/16 01:22:45;;;;;;;;;;;;;;;;;;5072400;28;19975;-64
2023/03/16 01:25:12;;;;;;;;;;;;;;;;;;5070732;28;19928;-65
2023/03/16 01:27:39;;;;;;;;;;;;;;;;;;5071283;28;20015;-64
2023/03/16 01:30:06;;;;;;;;;;;;;;;;;;5072563;28;19924;-65
2023/03/16 01:32:34;;;;;;;;;;;;;;;;;;5072569;28;20392;-64
2023/03/16 01:35:01;;;;;;;;;;;;;;;;;;5069760;28;20023;-64
2023/03/16 01:37:28;;;;;;;;;;;;;;;;;;5071965;28;19924;-64
2023/03/16 01:39:55;;;;;;;;;;;;;;;;;;5066305;28;20379;-64
2023/03/16 01:42:22;;;;;;;;;;;;;;;;;;5070173;28;20140;-64
2023/03/16 01:44:49;;;;;;;;;;;;;;;;;;5070585;28;19924;-64
2023/03/16 01:47:17;;;;;;;;;;;;;;;;;;5071138;28;19931;-64
2023/03/16 01:49:46;;;;;;;;;;;;;;;;;;5070576;28;19924;-65
2023/03/16 01:52:13;;;;;;;;;;;;;;;;;;5071294;28;20302;-64
2023/03/16 01:54:41;;;;;;;;;;;;;;;;;;5069727;28;19968;-64
2023/03/16 01:57:08;;;;;;;;;;;;;;;;;;5071640;28;20095;-64
2023/03/16 01:59:35;;;;;;;;;;;;;;;;;;5069016;28;19946;-65
2023/03/16 02:02:02;;;;;;;;;;;;;;;;;;5072381;28;20300;-65
2023/03/16 02:04:29;;;;;;;;;;;;;;;;;;5070149;28;20322;-64
2023/03/16 02:06:56;;;;;;;;;;;;;;;;;;5070234;28;20364;-65
2023/03/16 02:09:23;;;;;;;;;;;;;;;;;;5069173;28;19975;-64
2023/03/16 02:11:50;;;;;;;;;;;;;;;;;;5071841;28;19931;-64
2023/03/16 02:14:17;;;;;;;;;;;;;;;;;;5069115;28;20535;-65
2023/03/16 02:16:44;;;;;;;;;;;;;;;;;;5071711;28;19963;-65
2023/03/16 02:19:11;;;;;;;;;;;;;;;;;;5068075;28;19978;-64
2023/03/16 02:21:38;;;;;;;;;;;;;;;;;;5070138;28;20454;-65
2023/03/16 02:24:05;;;;;;;;;;;;;;;;;;5068990;28;20474;-65
2023/03/16 02:26:32;;;;;;;;;;;;;;;;;;5071118;28;19970;-65
2023/03/16 02:28:58;;;;;;;;;;;;;;;;;;5069440;28;19931;-65
2023/03/16 02:31:26;;;;;;;;;;;;;;;;;;5071717;28;19930;-65
2023/03/16 02:33:52;;;;;;;;;;;;;;;;;;5069149;28;19933;-64
2023/03/16 02:36:19;;;;;;;;;;;;;;;;;;5071485;28;19924;-64
2023/03/16 02:38:46;;;;;;;;;;;;;;;;;;5067095;28;20014;-65
2023/03/16 02:41:13;;;;;;;;;;;;;;;;;;5070744;28;20003;-66
2023/03/16 02:43:40;;;;;;;;;;;;;;;;;;5069556;28;19930;-65
2023/03/16 02:46:07;;;;;;;;;;;;;;;;;;5071627;28;19930;-65
2023/03/16 02:48:34;;;;;;;;;;;;;;;;;;5066158;28;20019;-65
2023/03/16 02:51:01;;;;;;;;;;;;;;;;;;5071210;28;19924;-65
2023/03/16 02:53:28;;;;;;;;;;;;;;;;;;5071919;28;20011;-65
2023/03/16 02:55:55;;;;;;;;;;;;;;;;;;5075237;28;19925;-65
2023/03/16 02:58:22;;;;;;;;;;;;;;;;;;5072898;28;20016;-64
2023/03/16 03:00:49;;;;;;;;;;;;;;;;;;5073955;28;19931;-65
2023/03/16 03:03:16;;;;;;;;;;;;;;;;;;5073218;28;20502;-65
2023/03/16 03:05:44;;;;;;;;;;;;;;;;;;5073205;28;19929;-65
2023/03/16 03:08:11;;;;;;;;;;;;;;;;;;5070549;28;20007;-64
2023/03/16 03:10:38;;;;;;;;;;;;;;;;;;5073797;28;19932;-65
2023/03/16 03:13:06;;;;;;;;;;;;;;;;;;5073555;28;20019;-64
2023/03/16 03:15:33;;;;;;;;;;;;;;;;;;5060149;28;19925;-64
2023/03/16 03:18:00;;;;;;;;;;;;;;;;;;5072470;28;19925;-64
2023/03/16 03:20:27;;;;;;;;;;;;;;;;;;5074592;28;20015;-64
2023/03/16 03:22:53;;;;;;;;;;;;;;;;;;5073095;28;20018;-65
2023/03/16 03:25:21;;;;;;;;;;;;;;;;;;5072658;28;20036;-65
2023/03/16 03:27:48;;;;;;;;;;;;;;;;;;5074041;28;20414;-65
2023/03/16 03:30:15;;;;;;;;;;;;;;;;;;5073510;28;19932;-65
2023/03/16 03:32:42;;;;;;;;;;;;;;;;;;5074682;28;19938;-65
2023/03/16 03:35:11;;;;;;;;;;;;;;;;;;5071999;28;20021;-64
2023/03/16 03:37:38;;;;;;;;;;;;;;;;;;5073257;28;19932;-64
2023/03/16 03:40:05;;;;;;;;;;;;;;;;;;5071445;28;20015;-65
2023/03/16 03:42:32;;;;;;;;;;;;;;;;;;5073043;28;20014;-65
2023/03/16 03:44:59;;;;;;;;;;;;;;;;;;5073223;28;19931;-65
2023/03/16 03:47:26;;;;;;;;;;;;;;;;;;5074299;28;19931;-65
2023/03/16 03:49:53;;;;;;;;;;;;;;;;;;5073579;28;20376;-64
2023/03/16 03:52:20;;;;;;;;;;;;;;;;;;5071062;28;20389;-64
2023/03/16 03:54:47;;;;;;;;;;;;;;;;;;5072136;28;20015;-65
2023/03/16 03:57:14;;;;;;;;;;;;;;;;;;5073038;28;19944;-65
2023/03/16 03:59:42;;;;;;;;;;;;;;;;;;5072539;28;20014;-64
2023/03/16 04:02:09;;;;;;;;;;;;;;;;;;5073717;28;19931;-65
2023/03/16 04:07:17;;;;;;;;;;;;;;;;;;5071921;28;20461;-65
2023/03/16 04:09:44;;;;;;;;;;;;;;;;;;5072379;28;19924;-65
2023/03/16 04:12:11;;;;;;;;;;;;;;;;;;5073645;28;19977;-64
2023/03/16 04:14:38;;;;;;;;;;;;;;;;;;5067321;28;20003;-64
2023/03/16 04:17:05;;;;;;;;;;;;;;;;;;5067490;28;19978;-64
2023/03/16 04:19:33;;;;;;;;;;;;;;;;;;5072004;28;19972;-64
2023/03/16 04:22:00;;;;;;;;;;;;;;;;;;5073069;28;19924;-65
2023/03/16 04:24:27;;;;;;;;;;;;;;;;;;5062985;28;19924;-65
2023/03/16 04:26:54;;;;;;;;;;;;;;;;;;5073827;28;19928;-65
2023/03/16 04:29:21;;;;;;;;;;;;;;;;;;5063941;28;19983;-64
2023/03/16 04:31:48;;;;;;;;;;;;;;;;;;5073189;28;19983;-64
2023/03/16 04:34:15;;;;;;;;;;;;;;;;;;5071003;28;19924;-65
2023/03/16 04:36:42;;;;;;;;;;;;;;;;;;5072822;28;19924;-64
2023/03/16 04:39:09;;;;;;;;;;;;;;;;;;5070613;28;20284;-64
2023/03/16 04:41:36;;;;;;;;;;;;;;;;;;5073208;28;19924;-64
2023/03/16 04:44:03;;;;;;;;;;;;;;;;;;5072489;28;19971;-64
2023/03/16 04:46:30;;;;;;;;;;;;;;;;;;5073327;28;20011;-64
2023/03/16 04:48:57;;;;;;;;;;;;;;;;;;5071067;28;20359;-65
2023/03/16 04:51:25;;;;;;;;;;;;;;;;;;5072672;28;19932;-64
2023/03/16 04:53:52;;;;;;;;;;;;;;;;;;5070654;28;20422;-64
2023/03/16 04:56:19;;;;;;;;;;;;;;;;;;5072443;28;19959;-64
2023/03/16 04:58:46;;;;;;;;;;;;;;;;;;5071161;28;19924;-65
2023/03/16 05:01:13;;;;;;;;;;;;;;;;;;5069902;28;19924;-64
2023/03/16 05:03:40;;;;;;;;;;;;;;;;;;5067760;28;20384;-65
2023/03/16 05:06:07;;;;;;;;;;;;;;;;;;5071658;28;19928;-65
2023/03/16 05:08:34;;;;;;;;;;;;;;;;;;5070643;28;19928;-64
2023/03/16 05:11:01;;;;;;;;;;;;;;;;;;5071500;28;20007;-63
2023/03/16 05:13:28;;;;;;;;;;;;;;;;;;5062521;28;20007;-65
2023/03/16 05:15:55;;;;;;;;;;;;;;;;;;5062588;28;19928;-65
2023/03/16 05:18:22;;;;;;;;;;;;;;;;;;5066104;28;20003;-64
2023/03/16 05:20:49;;;;;;;;;;;;;;;;;;5072017;28;20352;-64
2023/03/16 05:23:16;;;;;;;;;;;;;;;;;;5067931;28;19990;-65
2023/03/16 05:25:43;;;;;;;;;;;;;;;;;;5064617;28;19932;-65
2023/03/16 05:28:10;;;;;;;;;;;;;;;;;;5069707;28;20015;-64
2023/03/16 05:30:37;;;;;;;;;;;;;;;;;;5070436;28;19935;-65
2023/03/16 05:33:04;;;;;;;;;;;;;;;;;;5071561;28;19935;-65
2023/03/16 05:35:31;;;;;;;;;;;;;;;;;;5070804;28;19986;-66
2023/03/16 05:37:58;;;;;;;;;;;;;;;;;;5070710;28;19975;-64
2023/03/16 05:40:26;;;;;;;;;;;;;;;;;;5060960;28;20011;-65
2023/03/16 05:42:53;;;;;;;;;;;;;;;;;;5070761;28;19925;-65
2023/03/16 05:45:20;;;;;;;;;;;;;;;;;;5069867;28;19928;-65
2023/03/16 05:47:47;;;;;;;;;;;;;;;;;;5070975;28;19954;-65
2023/03/16 05:50:15;;;;;;;;;;;;;;;;;;5069436;28;19932;-65
2023/03/16 05:52:43;;;;;;;;;;;;;;;;;;5070751;28;19931;-64
2023/03/16 05:55:10;;;;;;;;;;;;;;;;;;5067354;28;19932;-65
2023/03/16 05:57:37;;;;;;;;;;;;;;;;;;5071155;28;19924;-64
2023/03/16 06:00:12;;;;;;;;;;;;;;;;;;5068936;28;19936;-65
2023/03/16 06:02:38;;;;;;;;;;;;;;;;;;5071007;28;19982;-65
2023/03/16 06:05:06;;;;;;;;;;;;;;;;;;5069640;28;19963;-65
2023/03/16 06:07:33;;;;;;;;;;;;;;;;;;5070656;28;19932;-65
2023/03/16 06:10:03;;;;;;;;;;;;;;;;;;5062825;28;19936;-65
2023/03/16 06:12:30;;;;;;;;;;;;;;;;;;5066714;28;20339;-65
2023/03/16 06:14:57;;;;;;;;;;;;;;;;;;5055121;28;20015;-66
2023/03/16 06:17:24;;;;;;;;;;;;;;;;;;5070528;28;20011;-66
2023/03/16 06:19:52;;;;;;;;;;;;;;;;;;5068351;28;20303;-65
2023/03/16 06:22:19;;;;;;;;;;;;;;;;;;5067384;28;19948;-65
2023/03/16 06:24:46;;;;;;;;;;;;;;;;;;5069781;28;20375;-65
2023/03/16 06:27:13;;;;;;;;;;;;;;;;;;5070307;28;19978;-66
2023/03/16 06:29:40;;;;;;;;;;;;;;;;;;5067714;28;19924;-65
2023/03/16 06:32:07;;;;;;;;;;;;;;;;;;5070269;28;19939;-64
2023/03/16 06:34:35;;;;;;;;;;;;;;;;;;5063647;28;20044;-65
2023/03/16 06:37:02;;;;;;;;;;;;;;;;;;5068204;28;19925;-65
2023/03/16 06:39:29;;;;;;;;;;;;;;;;;;5067319;28;20348;-71
2023/03/16 06:41:56;;;;;;;;;;;;;;;;;;5066294;28;20332;-65
2023/03/16 06:44:23;;;;;;;;;;;;;;;;;;5068761;28;19924;-66
2023/03/16 06:46:50;;;;;;;;;;;;;;;;;;5067188;28;20019;-66
2023/03/16 06:49:17;;;;;;;;;;;;;;;;;;5067277;28;19928;-66
2023/03/16 06:51:44;;;;;;;;;;;;;;;;;;5060612;28;20335;-67
2023/03/16 06:54:11;;;;;;;;;;;;;;;;;;5060898;28;19931;-66
2023/03/16 06:56:38;;;;;;;;;;;;;;;;;;5066532;28;19985;-66
2023/03/16 06:59:05;;;;;;;;;;;;;;;;;;5061832;28;20032;-65
2023/03/16 07:01:32;;;;;;;;;;;;;;;;;;5069010;28;19930;-66
2023/03/16 07:04:00;;;;;;;;;;;;;;;;;;5055027;28;19925;-65
2023/03/16 07:06:27;;;;;;;;;;;;;;;;;;5057147;28;19924;-66
2023/03/16 07:08:54;;;;;;;;;;;;;;;;;;5064142;28;20011;-67
2023/03/16 07:11:22;;;;;;;;;;;;;;;;;;5068392;28;19935;-66
2023/03/16 07:13:49;;;;;;;;;;;;;;;;;;5063261;28;20019;-65
2023/03/16 07:16:16;;;;;;;;;;;;;;;;;;5062813;28;20007;-65
2023/03/16 07:18:43;;;;;;;;;;;;;;;;;;5058937;28;19931;-66
2023/03/16 07:21:11;;;;;;;;;;;;;;;;;;5063975;28;19924;-66
2023/03/16 07:23:37;;;;;;;;;;;;;;;;;;5065288;28;19929;-64
2023/03/16 07:26:06;;;;;;;;;;;;;;;;;;5067301;28;19924;-65
2023/03/16 07:28:34;;;;;;;;;;;;;;;;;;5064750;28;19940;-65
2023/03/16 07:31:01;;;;;;;;;;;;;;;;;;5065037;28;20312;-64
2023/03/16 07:33:27;;;;;;;;;;;;;;;;;;5062268;28;19971;-65
2023/03/16 07:35:54;;;;;;;;;;;;;;;;;;5062762;28;20019;-65
2023/03/16 07:38:21;;;;;;;;;;;;;;;;;;5063933;28;19924;-65
2023/03/16 07:40:48;;;;;;;;;;;;;;;;;;5063648;28;19931;-65
2023/03/16 07:43:15;;;;;;;;;;;;;;;;;;5065744;28;19934;-65
2023/03/16 07:45:42;;;;;;;;;;;;;;;;;;5063420;28;19964;-65
2023/03/16 07:48:09;;;;;;;;;;;;;;;;;;5064448;28;19924;-65
2023/03/16 07:50:37;;;;;;;;;;;;;;;;;;5067929;28;19970;-64
2023/03/16 07:53:04;;;;;;;;;;;;;;;;;;5062981;28;19924;-63
2023/03/16 07:55:31;;;;;;;;;;;;;;;;;;5068152;28;19932;-64
2023/03/16 07:57:58;;;;;;;;;;;;;;;;;;5062299;28;19931;-64
2023/03/16 08:00:25;;;;;;;;;;;;;;;;;;5062056;28;20394;-65
2023/03/16 08:02:54;;;;;;;;;;;;;;;;;;5064581;28;20016;-65
2023/03/16 08:05:21;;;;;;;;;;;;;;;;;;5062605;28;19928;-64
2023/03/16 08:07:48;;;;;;;;;;;;;;;;;;5063819;28;19993;-63
2023/03/16 08:10:15;;;;;;;;;;;;;;;;;;5068168;28;19929;-63
2023/03/16 08:12:41;;;;;;;;;;;;;;;;;;5070722;28;19925;-62
2023/03/16 08:15:09;;;;;;;;;;;;;;;;;;5062992;28;19924;-63
2023/03/16 08:17:36;;;;;;;;;;;;;;;;;;5067035;28;19970;-63
2023/03/16 08:20:05;;;;;;;;;;;;;;;;;;5069722;28;19928;-64
2023/03/16 08:22:35;;;;;;;;;;;;;;;;;;5068887;28;19929;-64
2023/03/16 08:25:02;;;;;;;;;;;;;;;;;;5065768;28;19951;-64
2023/03/16 08:27:29;;;;;;;;;;;;;;;;;;5069320;28;19928;-65
2023/03/16 08:29:56;;;;;;;;;;;;;;;;;;5069886;28;19975;-65
2023/03/16 08:32:23;;;;;;;;;;;;;;;;;;5060091;28;19932;-65
2023/03/16 08:34:51;;;;;;;;;;;;;;;;;;5059940;28;20433;-65
2023/03/16 08:37:18;;;;;;;;;;;;;;;;;;5066917;28;20047;-65
2023/03/16 08:39:45;;;;;;;;;;;;;;;;;;5068217;28;20015;-63
2023/03/16 08:42:14;;;;;;;;;;;;;;;;;;5063161;28;20019;-64
2023/03/16 08:44:41;;;;;;;;;;;;;;;;;;5065411;28;19978;-63
2023/03/16 08:47:09;;;;;;;;;;;;;;;;;;5069527;28;19925;-62
2023/03/16 08:49:36;;;;;;;;;;;;;;;;;;5057288;28;20318;-63
2023/03/16 08:52:04;;;;;;;;;;;;;;;;;;5066686;28;19930;-63
2023/03/16 08:54:31;;;;;;;;;;;;;;;;;;5062989;28;19929;-65
2023/03/16 08:56:58;;;;;;;;;;;;;;;;;;5060610;28;19925;-64
2023/03/16 08:59:25;;;;;;;;;;;;;;;;;;5058445;28;19925;-65
2023/03/16 09:01:52;;;;;;;;;;;;;;;;;;5062800;28;20548;-63
2023/03/16 09:04:20;;;;;;;;;;;;;;;;;;5063968;28;19934;-63
2023/03/16 09:06:49;;;;;;;;;;;;;;;;;;5063831;28;19940;-65
2023/03/16 09:09:16;;;;;;;;;;;;;;;;;;5057083;28;19932;-63
2023/03/16 09:11:44;;;;;;;;;;;;;;;;;;5062241;28;20072;-64
2023/03/16 09:14:11;;;;;;;;;;;;;;;;;;5060301;28;19968;-63
2023/03/16 09:16:38;;;;;;;;;;;;;;;;;;5068605;28;19933;-63
2023/03/16 09:19:06;;;;;;;;;;;;;;;;;;5062884;28;20039;-63
2023/03/16 09:21:33;;;;;;;;;;;;;;;;;;5062457;28;19929;-63
2023/03/16 09:24:01;;;;;;;;;;;;;;;;;;5065728;28;19972;-63
2023/03/16 09:26:28;;;;;;;;;;;;;;;;;;5065584;28;19925;-64
2023/03/16 09:28:55;;;;;;;;;;;;;;;;;;5063860;28;20632;-63
2023/03/16 09:34:08;;;;;;;;;;;;;;;;;;5061770;28;20402;-65
2023/03/16 09:36:35;;;;;;;;;;;;;;;;;;5066451;28;19979;-64
2023/03/16 09:39:02;;;;;;;;;;;;;;;;;;5056267;28;19932;-63
2023/03/16 09:41:29;;;;;;;;;;;;;;;;;;5055543;28;19928;-63
2023/03/16 09:43:56;;;;;;;;;;;;;;;;;;5063447;28;20016;-63
2023/03/16 09:46:23;;;;;;;;;;;;;;;;;;5066366;28;19928;-64
2023/03/16 09:48:51;;;;;;;;;;;;;;;;;;5063841;28;20020;-63
2023/03/16 09:51:18;;;;;;;;;;;;;;;;;;5064175;28;19928;-62
2023/03/16 09:53:45;;;;;;;;;;;;;;;;;;5062926;28;19924;-63
2023/03/16 09:56:12;;;;;;;;;;;;;;;;;;5064611;28;19955;-62
2023/03/16 09:58:39;;;;;;;;;;;;;;;;;;5063889;28;19925;-62
2023/03/16 10:01:08;;;;;;;;;;;;;;;;;;5065399;28;20342;-60
2023/03/16 10:03:35;;;;;;;;;;;;;;;;;;5060164;28;19929;-60
2023/03/16 10:06:02;;;;;;;;;;;;;;;;;;5058087;28;19924;-60
2023/03/16 10:08:30;;;;;;;;;;;;;;;;;;5058675;28;20768;-60
2023/03/16 10:10:57;;;;;;;;;;;;;;;;;;5055087;28;20442;-60
2023/03/16 10:13:24;;;;;;;;;;;;;;;;;;5063050;28;20384;-60
2023/03/16 10:15:52;;;;;;;;;;;;;;;;;;5064676;28;19932;-60
2023/03/16 10:18:19;;;;;;;;;;;;;;;;;;5058194;28;20440;-60
2023/03/16 10:20:46;;;;;;;;;;;;;;;;;;5057876;28;19924;-60
2023/03/16 10:23:14;;;;;;;;;;;;;;;;;;5063929;28;19932;-62
2023/03/16 10:25:41;;;;;;;;;;;;;;;;;;5063788;28;19970;-64
2023/03/16 10:28:07;;;;;;;;;;;;;;;;;;5061310;28;20023;-64
2023/03/16 10:30:35;;;;;;;;;;;;;;;;;;5060570;28;19963;-64
2023/03/16 10:33:02;;;;;;;;;;;;;;;;;;5058829;28;20337;-64
2023/03/16 10:35:29;;;;;;;;;;;;;;;;;;5061346;28;19967;-63
2023/03/16 10:37:57;;;;;;;;;;;;;;;;;;5057052;28;20398;-64
2023/03/16 10:40:25;;;;;;;;;;;;;;;;;;5060166;28;19925;-64
2023/03/16 10:42:52;;;;;;;;;;;;;;;;;;5057012;28;20054;-64
2023/03/16 10:45:19;;;;;;;;;;;;;;;;;;5056364;28;19924;-64
2023/03/16 10:47:46;;;;;;;;;;;;;;;;;;5060149;28;20050;-63
2023/03/16 10:50:15;;;;;;;;;;;;;;;;;;5059663;28;19925;-63
2023/03/16 10:52:42;;;;;;;;;;;;;;;;;;5060684;28;20514;-63
2023/03/16 10:55:09;;;;;;;;;;;;;;;;;;5056619;28;20000;-63
2023/03/16 10:57:36;;;;;;;;;;;;;;;;;;5061952;28;19924;-63
2023/03/16 11:00:14;;;;;;;;;;;;;;;;;;5066996;28;19952;-63
2023/03/16 11:02:41;;;;;;;;;;;;;;;;;;5060997;28;19967;-63
2023/03/16 11:05:09;;;;;;;;;;;;;;;;;;5062079;28;19925;-63
2023/03/16 11:07:36;;;;;;;;;;;;;;;;;;5058770;28;19925;-63
2023/03/16 11:10:03;;;;;;;;;;;;;;;;;;5054451;28;19931;-63
2023/03/16 11:12:30;;;;;;;;;;;;;;;;;;5058134;28;19976;-63
2023/03/16 11:14:57;;;;;;;;;;;;;;;;;;5064096;28;20418;-61
2023/03/16 11:17:24;;;;;;;;;;;;;;;;;;5066107;28;20007;-62
2023/03/16 11:19:51;;;;;;;;;;;;;;;;;;5065337;28;20013;-64
2023/03/16 11:22:18;;;;;;;;;;;;;;;;;;5071529;28;19925;-64
2023/03/16 11:24:46;;;;;;;;;;;;;;;;;;5064141;28;19925;-64
2023/03/16 11:27:13;;;;;;;;;;;;;;;;;;5070101;28;20429;-63
2023/03/16 11:29:40;;;;;;;;;;;;;;;;;;5065004;28;20032;-63
2023/03/16 11:32:07;;;;;;;;;;;;;;;;;;5062929;28;19936;-64
2023/03/16 11:34:35;;;;;;;;;;;;;;;;;;5071215;28;19925;-64
2023/03/16 11:37:02;;;;;;;;;;;;;;;;;;5066428;28;19924;-64
2023/03/16 11:39:30;;;;;;;;;;;;;;;;;;5062456;28;20011;-63
2023/03/16 11:41:57;;;;;;;;;;;;;;;;;;5066193;28;19989;-64
2023/03/16 11:44:24;;;;;;;;;;;;;;;;;;5067074;28;19939;-64
2023/03/16 11:46:51;;;;;;;;;;;;;;;;;;5066265;28;20023;-63
2023/03/16 11:49:18;;;;;;;;;;;;;;;;;;5061747;28;19936;-63
2023/03/16 11:51:44;;;;;;;;;;;;;;;;;;5065628;28;19963;-62
2023/03/16 11:54:11;;;;;;;;;;;;;;;;;;5058039;28;20057;-63
2023/03/16 11:56:38;;;;;;;;;;;;;;;;;;5061671;28;19933;-63
2023/03/16 11:59:06;;;;;;;;;;;;;;;;;;5060031;28;19952;-63
2023/03/16 12:01:33;;;;;;;;;;;;;;;;;;5068966;28;20023;-63
2023/03/16 12:04:00;;;;;;;;;;;;;;;;;;5065647;28;19979;-63
2023/03/16 12:06:28;;;;;;;;;;;;;;;;;;5064152;28;19924;-63
2023/03/16 12:08:56;;;;;;;;;;;;;;;;;;5060199;28;19940;-63
2023/03/16 12:11:23;;;;;;;;;;;;;;;;;;5060488;28;19935;-64
2023/03/16 12:13:51;;;;;;;;;;;;;;;;;;5062212;28;20011;-64
2023/03/16 12:16:18;;;;;;;;;;;;;;;;;;5066069;28;19931;-64
2023/03/16 12:18:45;;;;;;;;;;;;;;;;;;5061023;28;19965;-64
2023/03/16 12:21:13;;;;;;;;;;;;;;;;;;5060651;28;19950;-63
2023/03/16 12:23:40;;;;;;;;;;;;;;;;;;5061055;28;19928;-63
2023/03/16 12:26:07;;;;;;;;;;;;;;;;;;5069028;28;19928;-64
2023/03/16 12:28:34;;;;;;;;;;;;;;;;;;5068585;28;19925;-67
2023/03/16 12:31:02;;;;;;;;;;;;;;;;;;5068103;28;20445;-63
2023/03/16 12:33:29;;;;;;;;;;;;;;;;;;5061562;28;20955;-62
2023/03/16 12:35:56;;;;;;;;;;;;;;;;;;5062451;28;19924;-63
2023/03/16 12:38:23;;;;;;;;;;;;;;;;;;5067525;28;19928;-62
2023/03/16 12:40:50;;;;;;;;;;;;;;;;;;5066550;28;20365;-62
2023/03/16 12:43:17;;;;;;;;;;;;;;;;;;5065264;28;19978;-64
2023/03/16 12:45:45;;;;;;;;;;;;;;;;;;5064089;28;19979;-62
2023/03/16 12:48:13;;;;;;;;;;;;;;;;;;5066619;28;20344;-64
2023/03/16 12:50:41;;;;;;;;;;;;;;;;;;5061943;28;19936;-63
2023/03/16 12:53:08;;;;;;;;;;;;;;;;;;5062025;28;19939;-64
2023/03/16 12:55:35;;;;;;;;;;;;;;;;;;5065095;28;20015;-64
2023/03/16 12:58:01;;;;;;;;;;;;;;;;;;5066081;28;20553;-65
2023/03/16 13:00:28;;;;;;;;;;;;;;;;;;5067624;28;19990;-63
2023/03/16 13:02:56;;;;;;;;;;;;;;;;;;5061579;28;19971;-64
2023/03/16 13:05:23;;;;;;;;;;;;;;;;;;5061198;28;20019;-64
2023/03/16 13:07:50;;;;;;;;;;;;;;;;;;5061502;28;20010;-63
2023/03/16 13:10:19;;;;;;;;;;;;;;;;;;5067704;28;19974;-63
2023/03/16 13:12:46;;;;;;;;;;;;;;;;;;5061460;28;19932;-64
2023/03/16 13:15:15;;;;;;;;;;;;;;;;;;5058710;28;20319;-64
2023/03/16 13:17:42;;;;;;;;;;;;;;;;;;5063774;28;19943;-63
2023/03/16 13:20:10;;;;;;;;;;;;;;;;;;5068806;28;19928;-67
2023/03/16 13:22:37;;;;;;;;;;;;;;;;;;5065695;28;19982;-65
2023/03/16 13:25:04;;;;;;;;;;;;;;;;;;5061573;28;19928;-67
2023/03/16 13:27:31;;;;;;;;;;;;;;;;;;5063573;28;19928;-67
2023/03/16 13:29:58;;;;;;;;;;;;;;;;;;5064733;28;20033;-66
2023/03/16 13:32:26;;;;;;;;;;;;;;;;;;5061147;28;19977;-67
2023/03/16 13:34:53;;;;;;;;;;;;;;;;;;5063559;28;19924;-66
2023/03/16 13:37:20;;;;;;;;;;;;;;;;;;5066978;28;19924;-66
2023/03/16 13:39:46;;;;;;;;;;;;;;;;;;5060964;28;19935;-66
2023/03/16 13:42:13;;;;;;;;;;;;;;;;;;5062971;28;20027;-66
2023/03/16 13:44:41;;;;;;;;;;;;;;;;;;5061934;28;20019;-66
2023/03/16 13:47:08;;;;;;;;;;;;;;;;;;5064365;28;19966;-65
2023/03/16 13:49:35;;;;;;;;;;;;;;;;;;5066462;28;20674;-66
2023/03/16 13:52:02;;;;;;;;;;;;;;;;;;5066041;28;19939;-66
2023/03/16 13:54:29;;;;;;;;;;;;;;;;;;5058598;28;19924;-67
2023/03/16 13:56:56;;;;;;;;;;;;;;;;;;5064428;28;20331;-66
2023/03/16 13:59:23;;;;;;;;;;;;;;;;;;5066715;28;19925;-66
2023/03/16 14:01:52;;;;;;;;;;;;;;;;;;5061782;28;19939;-67
2023/03/16 14:04:22;;;;;;;;;;;;;;;;;;5058652;28;19932;-66
2023/03/16 14:06:49;;;;;;;;;;;;;;;;;;5057337;28;20559;-67
2023/03/16 14:09:16;;;;;;;;;;;;;;;;;;5061033;28;19928;-66
2023/03/16 14:11:47;;;;;;;;;;;;;;;;;;5065150;28;19924;-66
2023/03/16 14:14:16;;;;;;;;;;;;;;;;;;5064368;28;20367;-66
2023/03/16 14:16:43;;;;;;;;;;;;;;;;;;5058885;28;19939;-66
2023/03/16 14:19:10;;;;;;;;;;;;;;;;;;5058737;28;19928;-66
2023/03/16 14:21:37;;;;;;;;;;;;;;;;;;5060148;28;19983;-67
2023/03/16 14:24:04;;;;;;;;;;;;;;;;;;5058557;28;20012;-66
2023/03/16 14:26:31;;;;;;;;;;;;;;;;;;5067171;28;19954;-66
2023/03/16 14:28:58;;;;;;;;;;;;;;;;;;5063698;28;19924;-67
2023/03/16 14:31:25;;;;;;;;;;;;;;;;;;5064577;28;19978;-65
2023/03/16 14:33:52;;;;;;;;;;;;;;;;;;5066932;28;19946;-67
2023/03/16 14:36:19;;;;;;;;;;;;;;;;;;5064734;28;19932;-66
2023/03/16 14:38:47;;;;;;;;;;;;;;;;;;5064308;28;19924;-66
2023/03/16 14:41:14;;;;;;;;;;;;;;;;;;5062852;28;19924;-66
2023/03/16 14:43:41;;;;;;;;;;;;;;;;;;5058009;28;19928;-65
2023/03/16 14:46:08;;;;;;;;;;;;;;;;;;5066043;28;19924;-65
2023/03/16 14:48:35;;;;;;;;;;;;;;;;;;5059425;28;19925;-66
2023/03/16 14:51:02;;;;;;;;;;;;;;;;;;5063547;28;19924;-65
2023/03/16 14:53:29;;;;;;;;;;;;;;;;;;5061842;28;19975;-66
2023/03/16 14:55:56;;;;;;;;;;;;;;;;;;5058341;28;20003;-66
2023/03/16 14:58:23;;;;;;;;;;;;;;;;;;5057528;28;19924;-65
2023/03/16 15:00:52;;;;;;;;;;;;;;;;;;5064263;28;20038;-67
2023/03/16 15:03:19;;;;;;;;;;;;;;;;;;5068565;28;20487;-67
2023/03/16 15:05:46;;;;;;;;;;;;;;;;;;5057295;28;20382;-67
2023/03/16 15:08:13;;;;;;;;;;;;;;;;;;5065997;28;19933;-65
2023/03/16 15:10:40;;;;;;;;;;;;;;;;;;5062416;28;19924;-66
2023/03/16 15:13:15;;;;;;;;;;;;;;;;;;5060242;28;19928;-66
2023/03/16 15:15:42;;;;;;;;;;;;;;;;;;5058377;28;20003;-66
2023/03/16 15:18:09;;;;;;;;;;;;;;;;;;5064113;28;19955;-67
2023/03/16 15:20:36;;;;;;;;;;;;;;;;;;5062030;28;19977;-64
2023/03/16 15:23:03;;;;;;;;;;;;;;;;;;5061136;28;19924;-66
2023/03/16 15:25:35;;;;;;;;;;;;;;;;;;5057551;28;19924;-66
2023/03/16 15:28:02;;;;;;;;;;;;;;;;;;5074434;28;20387;-66
2023/03/16 15:30:29;;;;;;;;;;;;;;;;;;5065495;28;19924;-66
2023/03/16 15:32:56;;;;;;;;;;;;;;;;;;5062367;28;19943;-66
2023/03/16 15:35:23;;;;;;;;;;;;;;;;;;5062723;28;19960;-67
2023/03/16 15:37:50;;;;;;;;;;;;;;;;;;5073543;28;20003;-67
2023/03/16 15:40:17;;;;;;;;;;;;;;;;;;5068855;28;19943;-66
2023/03/16 15:42:44;;;;;;;;;;;;;;;;;;5064588;28;20332;-67
2023/03/16 15:45:11;;;;;;;;;;;;;;;;;;5060274;28;19925;-66
2023/03/16 15:47:38;;;;;;;;;;;;;;;;;;5062339;28;19928;-67
2023/03/16 15:50:04;;;;;;;;;;;;;;;;;;5063617;28;19928;-67
2023/03/16 15:52:31;;;;;;;;;;;;;;;;;;5064371;28;19924;-67
2023/03/16 15:55:03;;;;;;;;;;;;;;;;;;5053865;28;19936;-67
2023/03/16 15:57:30;;;;;;;;;;;;;;;;;;5065650;28;20387;-67
2023/03/16 15:59:57;;;;;;;;;;;;;;;;;;5063818;28;19924;-67
2023/03/16 16:02:24;;;;;;;;;;;;;;;;;;5067541;28;19943;-68
2023/03/16 16:04:51;;;;;;;;;;;;;;;;;;5064469;28;19924;-66
2023/03/16 16:07:18;;;;;;;;;;;;;;;;;;5062520;28;20001;-66
2023/03/16 16:09:45;;;;;;;;;;;;;;;;;;5065485;28;19943;-66
2023/03/16 16:12:13;;;;;;;;;;;;;;;;;;5068029;28;19935;-65
2023/03/16 16:14:40;;;;;;;;;;;;;;;;;;5066381;28;20276;-66
2023/03/16 16:17:07;;;;;;;;;;;;;;;;;;5063942;28;19924;-66
2023/03/16 16:19:34;;;;;;;;;;;;;;;;;;5065424;28;19924;-66
2023/03/16 16:22:02;;;;;;;;;;;;;;;;;;5070382;28;19925;-65
2023/03/16 16:24:29;;;;;;;;;;;;;;;;;;5066735;28;19925;-65
2023/03/16 16:26:56;;;;;;;;;;;;;;;;;;5062255;28;20019;-66
2023/03/16 16:29:23;;;;;;;;;;;;;;;;;;5061981;28;19985;-67
2023/03/16 16:31:50;;;;;;;;;;;;;;;;;;5065813;28;19924;-66
2023/03/16 16:34:17;;;;;;;;;;;;;;;;;;5069695;28;19925;-65
2023/03/16 16:36:44;;;;;;;;;;;;;;;;;;5058439;28;19925;-66
2023/03/16 16:39:11;;;;;;;;;;;;;;;;;;5064641;28;20458;-66
2023/03/16 16:41:38;;;;;;;;;;;;;;;;;;5061008;28;19929;-66
2023/03/16 16:44:07;;;;;;;;;;;;;;;;;;5060953;28;19925;-67
2023/03/16 16:46:34;;;;;;;;;;;;;;;;;;5060156;28;19932;-67
2023/03/16 16:49:02;;;;;;;;;;;;;;;;;;5064757;28;19934;-67
2023/03/16 16:51:29;;;;;;;;;;;;;;;;;;5069510;28;19958;-67